Ana Sayfa
METAR-TAF:

METAR-TAF

Havaalanları :

Gaines County Airport

Seminole, Teksas, Amerika Birleşik Devletleri

Enlem: 32-40-31N, Boylam: 102-39-09W, yükseklik: 1010 m

Güncel hava durumu gözlemi

Rapor saat 10:15 UTC de 28 dakika önce yapıldı.
Rüzgar güneydoğudan 3 kt
Sıcaklık 23°C
Nem 47%
Basınç 1016 hPa
Görüş mesafesi: 16.1 km
Açık gökyüzü

METAR: KGNC 211015Z AUTO 14003KT 10SM CLR 23/11 A3000 RMK AO2 T02250107

Saat: 05:43 (10:43 UTC)


TAF: eksik

4.000'den fazla havaalanı için hava durumu gözlemleri ve tahminleri (METAR ve TAF raporları).

Kullanılabilir istasyonlar harita üzerinde sarı ve kırmızı noktalarla gösterilir.

İstasyonun adını görmek için fareyi noktanın üzerinde gezdirin.

Sonrasında hava gözlem ve tahminlerini görmek için tıklayın.

Haritayı değiştirmek için: yaklaştırmak için siyah artı işaretli yeşil düğmeye ve uzaklaştırmak için de eksi işaretli düğmeye hızla tıklayın; bitişik haritalar için yeşil okları kullanın.


METAR-TAF: